BAW21ML KDEN-EGLL
Flight info
| Callsign | BAW21ML |
|---|---|
| Flight time | N/A |
| Altitude | 35000 |
| Route | CHUWY1 CHUWY DCT KD78A DCT KP06G DCT DLH DCT KP18K DCT YQT DCT 52N080W/N0495F370 56N070W DCT LAKES/M084F370 DCT SAVRY DCT 61N050W 6130N04000W 61N030W 59N020W DCT AGORI/N0479F370 DCT OSBOX DCT MIMKU DCT KELLY L10 WAL UY53 NUGRA |
| Aircraft | A35K/H-SDE2E3GHIJ3J4J5LM1ORWXY/LB1D1 |
Departure
| Time | N/A |
|---|---|
| Airport | Denver International Airport (KDEN) |
Arrival
| Time | 2026-05-04 19:44 |
|---|---|
| Airport | London Heathrow Airport (EGLL) |
| Time | Latitude | Longitude | Altitude | Speed | Heading |
|---|---|---|---|---|---|
| 2026-05-04 19:14 | 53.38187 | -3.11043 | 38998 ft | 490 kts | 126° |
| 2026-05-04 19:14 | 53.36157 | -3.06401 | 39001 ft | 490 kts | 127° |
| 2026-05-04 19:15 | 53.32075 | -2.97287 | 38939 ft | 490 kts | 127° |
| 2026-05-04 19:15 | 53.27979 | -2.88193 | 38938 ft | 490 kts | 127° |
| 2026-05-04 19:16 | 53.23920 | -2.79158 | 38941 ft | 490 kts | 127° |
| 2026-05-04 19:16 | 53.21877 | -2.74611 | 38754 ft | 489 kts | 127° |
| 2026-05-04 19:16 | 53.19831 | -2.70069 | 38517 ft | 489 kts | 127° |
| 2026-05-04 19:16 | 53.17782 | -2.65531 | 38261 ft | 490 kts | 127° |
| 2026-05-04 19:17 | 53.15732 | -2.60993 | 38013 ft | 490 kts | 127° |
| 2026-05-04 19:17 | 53.13683 | -2.56476 | 37582 ft | 488 kts | 127° |
| 2026-05-04 19:17 | 53.11701 | -2.51909 | 36908 ft | 486 kts | 124° |
| 2026-05-04 19:17 | 53.09819 | -2.47250 | 36183 ft | 485 kts | 123° |
| 2026-05-04 19:18 | 53.07942 | -2.42588 | 35429 ft | 485 kts | 124° |
| 2026-05-04 19:18 | 53.06052 | -2.37933 | 34624 ft | 486 kts | 124° |
| 2026-05-04 19:18 | 53.04116 | -2.33323 | 33749 ft | 487 kts | 128° |
| 2026-05-04 19:18 | 53.01764 | -2.29277 | 32852 ft | 488 kts | 142° |
| 2026-05-04 19:19 | 52.98970 | -2.26063 | 31919 ft | 490 kts | 148° |
| 2026-05-04 19:19 | 52.96082 | -2.23052 | 31095 ft | 490 kts | 148° |
| 2026-05-04 19:19 | 52.93197 | -2.20061 | 30391 ft | 487 kts | 148° |
| 2026-05-04 19:19 | 52.90339 | -2.17091 | 29722 ft | 483 kts | 148° |
| 2026-05-04 19:20 | 52.87508 | -2.14145 | 29085 ft | 478 kts | 148° |
| 2026-05-04 19:20 | 52.84703 | -2.11224 | 28456 ft | 474 kts | 148° |
| 2026-05-04 19:20 | 52.81928 | -2.08336 | 27842 ft | 469 kts | 148° |
| 2026-05-04 19:20 | 52.79176 | -2.05476 | 27235 ft | 465 kts | 148° |
| 2026-05-04 19:21 | 52.76449 | -2.02645 | 26615 ft | 460 kts | 148° |
| 2026-05-04 19:21 | 52.73787 | -1.99884 | 25987 ft | 456 kts | 148° |
| 2026-05-04 19:21 | 52.71078 | -1.97079 | 25342 ft | 452 kts | 148° |
| 2026-05-04 19:21 | 52.68427 | -1.94338 | 24731 ft | 448 kts | 148° |
| 2026-05-04 19:22 | 52.65798 | -1.91623 | 24113 ft | 443 kts | 148° |
| 2026-05-04 19:22 | 52.63198 | -1.88942 | 23489 ft | 439 kts | 148° |
| 2026-05-04 19:22 | 52.60619 | -1.86286 | 22860 ft | 435 kts | 148° |
| 2026-05-04 19:22 | 52.58100 | -1.83696 | 22231 ft | 431 kts | 148° |
| 2026-05-04 19:23 | 52.55605 | -1.81131 | 21903 ft | 428 kts | 150° |
| 2026-05-04 19:23 | 52.53088 | -1.78552 | 20864 ft | 425 kts | 148° |
| 2026-05-04 19:23 | 52.50565 | -1.75962 | 20633 ft | 432 kts | 149° |
| 2026-05-04 19:23 | 52.48035 | -1.73370 | 19815 ft | 423 kts | 148° |
| 2026-05-04 19:24 | 52.45557 | -1.70838 | 20059 ft | 418 kts | 149° |
| 2026-05-04 19:24 | 52.43116 | -1.68352 | 20045 ft | 409 kts | 149° |
| 2026-05-04 19:24 | 52.40706 | -1.65900 | 20047 ft | 407 kts | 149° |
| 2026-05-04 19:24 | 52.38302 | -1.63458 | 20047 ft | 407 kts | 149° |
| 2026-05-04 19:25 | 52.35894 | -1.61014 | 20046 ft | 407 kts | 149° |
| 2026-05-04 19:25 | 52.33488 | -1.58574 | 20045 ft | 407 kts | 149° |
| 2026-05-04 19:25 | 52.31086 | -1.56140 | 20045 ft | 407 kts | 149° |
| 2026-05-04 19:25 | 52.28677 | -1.53703 | 20046 ft | 407 kts | 149° |
| 2026-05-04 19:26 | 52.26276 | -1.51277 | 20044 ft | 407 kts | 150° |
| 2026-05-04 19:26 | 52.23869 | -1.48847 | 20048 ft | 406 kts | 150° |
| 2026-05-04 19:26 | 52.21513 | -1.46323 | 19843 ft | 402 kts | 145° |
| 2026-05-04 19:26 | 52.19338 | -1.43458 | 19144 ft | 402 kts | 141° |
| 2026-05-04 19:27 | 52.17223 | -1.40483 | 18463 ft | 401 kts | 140° |
| 2026-05-04 19:27 | 52.15125 | -1.37524 | 17788 ft | 397 kts | 140° |
| 2026-05-04 19:27 | 52.13042 | -1.34599 | 17097 ft | 393 kts | 141° |
| 2026-05-04 19:27 | 52.10977 | -1.31712 | 16426 ft | 390 kts | 141° |
| 2026-05-04 19:28 | 52.08922 | -1.28849 | 15766 ft | 387 kts | 141° |
| 2026-05-04 19:28 | 52.06894 | -1.26027 | 15118 ft | 383 kts | 141° |
| 2026-05-04 19:28 | 52.04873 | -1.23222 | 14499 ft | 380 kts | 141° |
| 2026-05-04 19:28 | 52.02874 | -1.20452 | 13888 ft | 376 kts | 141° |
| 2026-05-04 19:29 | 52.00897 | -1.17716 | 13224 ft | 372 kts | 140° |
| 2026-05-04 19:29 | 51.98938 | -1.15007 | 12542 ft | 368 kts | 141° |
| 2026-05-04 19:29 | 51.97003 | -1.12337 | 11876 ft | 364 kts | 140° |
| 2026-05-04 19:29 | 51.95079 | -1.09681 | 11271 ft | 360 kts | 140° |
| 2026-05-04 19:30 | 51.93211 | -1.07099 | 10980 ft | 346 kts | 141° |
| 2026-05-04 19:30 | 51.91411 | -1.04621 | 10770 ft | 332 kts | 141° |
| 2026-05-04 19:30 | 51.89686 | -1.02248 | 10551 ft | 319 kts | 140° |
| 2026-05-04 19:30 | 51.88051 | -1.00002 | 10343 ft | 306 kts | 141° |
| 2026-05-04 19:31 | 51.86457 | -0.97813 | 10136 ft | 294 kts | 141° |
| 2026-05-04 19:31 | 51.85094 | -0.95425 | 9899 ft | 286 kts | 123° |
| 2026-05-04 19:31 | 51.84158 | -0.92657 | 9703 ft | 275 kts | 117° |
| 2026-05-04 19:31 | 51.83340 | -0.89929 | 9508 ft | 265 kts | 117° |
| 2026-05-04 19:32 | 51.82553 | -0.87295 | 9279 ft | 256 kts | 118° |
| 2026-05-04 19:32 | 51.81775 | -0.84727 | 8959 ft | 252 kts | 117° |
| 2026-05-04 19:32 | 51.81006 | -0.82200 | 8610 ft | 250 kts | 117° |
| 2026-05-04 19:32 | 51.80238 | -0.79683 | 8244 ft | 249 kts | 117° |
| 2026-05-04 19:33 | 51.79471 | -0.77175 | 7866 ft | 248 kts | 118° |
| 2026-05-04 19:33 | 51.78707 | -0.74687 | 7512 ft | 247 kts | 117° |
| 2026-05-04 19:33 | 51.77946 | -0.72213 | 7168 ft | 245 kts | 118° |
| 2026-05-04 19:33 | 51.77189 | -0.69759 | 7031 ft | 245 kts | 117° |
| 2026-05-04 19:34 | 51.76431 | -0.67299 | 7022 ft | 245 kts | 117° |
| 2026-05-04 19:34 | 51.75674 | -0.64844 | 7017 ft | 244 kts | 117° |
| 2026-05-04 19:34 | 51.74917 | -0.62391 | 7002 ft | 244 kts | 117° |
| 2026-05-04 19:34 | 51.74162 | -0.59948 | 6999 ft | 244 kts | 117° |
| 2026-05-04 19:35 | 51.73378 | -0.57526 | 7000 ft | 243 kts | 122° |
| 2026-05-04 19:35 | 51.72225 | -0.55575 | 7016 ft | 241 kts | 149° |
| 2026-05-04 19:35 | 51.70661 | -0.54761 | 7019 ft | 237 kts | 179° |
| 2026-05-04 19:35 | 51.69073 | -0.55331 | 6998 ft | 236 kts | 208° |
| 2026-05-04 19:36 | 51.67817 | -0.56972 | 6704 ft | 233 kts | 227° |
| 2026-05-04 19:36 | 51.66747 | -0.58974 | 6236 ft | 237 kts | 230° |
| 2026-05-04 19:36 | 51.65717 | -0.61009 | 5845 ft | 238 kts | 231° |
| 2026-05-04 19:36 | 51.64674 | -0.63075 | 5464 ft | 238 kts | 231° |
| 2026-05-04 19:37 | 51.63633 | -0.65145 | 5090 ft | 238 kts | 231° |
| 2026-05-04 19:37 | 51.62591 | -0.67215 | 4712 ft | 237 kts | 230° |
| 2026-05-04 19:37 | 51.61555 | -0.69279 | 4334 ft | 237 kts | 230° |
| 2026-05-04 19:37 | 51.60520 | -0.71339 | 3974 ft | 236 kts | 230° |
| 2026-05-04 19:38 | 51.59476 | -0.73376 | 3603 ft | 235 kts | 227° |
| 2026-05-04 19:38 | 51.58138 | -0.74827 | 3201 ft | 233 kts | 197° |
| 2026-05-04 19:38 | 51.56555 | -0.75232 | 3005 ft | 229 kts | 182° |
| 2026-05-04 19:38 | 51.54956 | -0.75343 | 2990 ft | 230 kts | 180° |
| 2026-05-04 19:39 | 51.53354 | -0.75425 | 2992 ft | 230 kts | 181° |
| 2026-05-04 19:39 | 51.51753 | -0.75497 | 2992 ft | 230 kts | 181° |
| 2026-05-04 19:39 | 51.50143 | -0.75552 | 2722 ft | 233 kts | 177° |
| 2026-05-04 19:39 | 51.48630 | -0.74851 | 2528 ft | 225 kts | 146° |
| 2026-05-04 19:40 | 51.47526 | -0.73145 | 2471 ft | 217 kts | 117° |
| 2026-05-04 19:40 | 51.47318 | -0.70932 | 2487 ft | 197 kts | 78° |
| 2026-05-04 19:40 | 51.47564 | -0.68863 | 2483 ft | 183 kts | 81° |
| 2026-05-04 19:40 | 51.47681 | -0.66878 | 2451 ft | 176 kts | 87° |
| 2026-05-04 19:41 | 51.47691 | -0.64948 | 2175 ft | 170 kts | 90° |
| 2026-05-04 19:41 | 51.47689 | -0.63116 | 1921 ft | 159 kts | 88° |
| 2026-05-04 19:41 | 51.47700 | -0.61389 | 1719 ft | 150 kts | 88° |
| 2026-05-04 19:41 | 51.47707 | -0.59759 | 1492 ft | 143 kts | 89° |
| 2026-05-04 19:42 | 51.47712 | -0.58202 | 1315 ft | 137 kts | 88° |
| 2026-05-04 19:42 | 51.47718 | -0.56692 | 1121 ft | 135 kts | 88° |
| 2026-05-04 19:42 | 51.47724 | -0.55199 | 945 ft | 133 kts | 86° |
| 2026-05-04 19:42 | 51.47733 | -0.53702 | 738 ft | 135 kts | 88° |
| 2026-05-04 19:43 | 51.47739 | -0.52201 | 583 ft | 136 kts | 87° |
| 2026-05-04 19:43 | 51.47746 | -0.50693 | 408 ft | 137 kts | 89° |
| 2026-05-04 19:43 | 51.47743 | -0.49671 | 249 ft | 134 kts | 86° |
| 2026-05-04 19:43 | 51.47754 | -0.47750 | 93 ft | 122 kts | 89° |
| 2026-05-04 19:44 | 51.47756 | -0.46993 | 99 ft | 72 kts | 90° |
| 2026-05-04 19:44 | 51.47756 | -0.46544 | 102 ft | 32 kts | 89° |
| 2026-05-04 19:44 | 51.47741 | -0.46216 | 96 ft | 21 kts | 118° |